createdAt,value
2017-03-20T00:00:29.304Z,0
2017-03-20T00:01:43.944Z,0
2017-03-20T00:02:29.347Z,0
2017-03-20T00:03:29.369Z,0
2017-03-20T00:04:29.391Z,0
2017-03-20T00:05:29.414Z,0
2017-03-20T00:06:29.433Z,0
2017-03-20T00:07:28.856Z,0
2017-03-20T00:08:29.480Z,0
2017-03-20T00:09:29.498Z,0
2017-03-20T00:10:29.562Z,0
2017-03-20T00:11:29.531Z,0
2017-03-20T00:12:44.169Z,0
2017-03-20T00:13:29.268Z,0
2017-03-20T00:14:29.602Z,0
2017-03-20T00:15:29.612Z,0
2017-03-20T00:16:29.637Z,0
2017-03-20T00:17:29.651Z,0
2017-03-20T00:18:29.379Z,0
2017-03-20T00:19:29.740Z,0
2017-03-20T00:20:29.721Z,0
2017-03-20T00:21:29.431Z,0
2017-03-20T00:22:29.760Z,0
2017-03-20T00:23:29.779Z,0
2017-03-20T00:24:29.845Z,0
2017-03-20T00:25:29.816Z,0
2017-03-20T00:26:29.540Z,0
2017-03-20T00:27:29.860Z,0
2017-03-20T00:28:44.499Z,0
2017-03-20T00:29:29.900Z,0
2017-03-20T00:30:29.919Z,0
2017-03-20T00:31:29.639Z,0
2017-03-20T00:32:29.967Z,0
2017-03-20T00:33:43.993Z,0
2017-03-20T00:34:30.003Z,0
2017-03-20T00:35:29.722Z,0
2017-03-20T00:36:30.043Z,0
2017-03-20T00:37:30.066Z,0
2017-03-20T00:38:30.088Z,0
2017-03-20T00:39:29.806Z,0
2017-03-20T00:40:29.834Z,0
2017-03-20T00:41:30.184Z,0
2017-03-20T00:42:30.170Z,0
2017-03-20T00:43:44.806Z,0
2017-03-20T00:44:30.214Z,0
2017-03-20T00:45:44.843Z,0
2017-03-20T00:46:30.257Z,0
2017-03-20T00:47:30.272Z,0
2017-03-20T00:48:29.993Z,0
2017-03-20T00:49:45.079Z,0
2017-03-20T00:50:30.328Z,0
2017-03-20T00:51:30.351Z,0
2017-03-20T00:52:30.372Z,0
2017-03-20T00:53:30.091Z,0
2017-03-20T00:54:45.032Z,0
2017-03-20T00:55:30.430Z,0
2017-03-20T00:56:44.766Z,0
2017-03-20T00:57:30.469Z,0
2017-03-20T00:58:30.497Z,0
2017-03-20T00:59:30.518Z,0
2017-03-20T01:01:30.555Z,0
2017-03-20T01:02:30.580Z,0
2017-03-20T01:03:30.604Z,0
2017-03-20T01:04:30.626Z,0
2017-03-20T01:05:44.950Z,0
2017-03-20T01:06:30.354Z,0
2017-03-20T01:07:30.680Z,0
2017-03-20T01:08:30.703Z,0
2017-03-20T01:09:30.724Z,0
2017-03-20T01:10:30.774Z,0
2017-03-20T01:11:30.763Z,0
2017-03-20T01:12:30.781Z,0
2017-03-20T01:13:30.806Z,0
2017-03-20T01:14:30.833Z,0
2017-03-20T01:15:45.154Z,0
2017-03-20T01:16:30.867Z,0
2017-03-20T01:17:45.498Z,0
2017-03-20T01:19:30.930Z,0
2017-03-20T01:20:30.947Z,0
2017-03-20T01:21:45.583Z,0
2017-03-20T01:22:30.989Z,0
2017-03-20T01:23:30.715Z,0
2017-03-20T01:24:31.034Z,0
2017-03-20T01:25:31.057Z,0
2017-03-20T01:26:31.081Z,0
2017-03-20T01:27:31.094Z,0
2017-03-20T01:28:30.812Z,0
2017-03-20T01:29:45.747Z,0
2017-03-20T01:30:30.849Z,0
2017-03-20T01:31:31.170Z,0
2017-03-20T01:32:31.199Z,0
2017-03-20T01:33:31.218Z,0
2017-03-20T01:34:30.935Z,0
2017-03-20T01:35:31.261Z,0
2017-03-20T01:36:45.893Z,0
2017-03-20T01:37:31.302Z,0
2017-03-20T01:38:31.319Z,0
2017-03-20T01:39:31.339Z,0
2017-03-20T01:40:31.379Z,0
2017-03-20T01:41:31.385Z,0
2017-03-20T01:42:31.099Z,0
2017-03-20T01:43:46.043Z,0
2017-03-20T01:44:31.444Z,0
2017-03-20T01:45:46.078Z,0
2017-03-20T01:46:31.487Z,0
2017-03-20T01:47:31.503Z,0
2017-03-20T01:48:31.226Z,0
2017-03-20T01:49:46.161Z,0
2017-03-20T01:50:31.262Z,0
2017-03-20T01:52:31.305Z,0
2017-03-20T01:53:31.327Z,0
2017-03-20T01:54:31.051Z,0
2017-03-20T01:55:31.368Z,0
2017-03-20T01:56:31.385Z,0
2017-03-20T01:57:31.407Z,0
2017-03-20T01:58:31.734Z,0
2017-03-20T01:59:31.451Z,0
2017-03-20T02:00:31.777Z,0
2017-03-20T02:01:31.793Z,0
2017-03-20T02:02:31.815Z,0
2017-03-20T02:03:31.835Z,0
2017-03-20T02:04:46.170Z,0
2017-03-20T02:05:46.488Z,0
2017-03-20T02:06:31.699Z,0
2017-03-20T02:07:31.915Z,0
2017-03-20T02:08:46.251Z,0
2017-03-20T02:09:31.960Z,0
2017-03-20T02:10:31.976Z,0
2017-03-20T02:11:31.723Z,0
2017-03-20T02:13:31.741Z,0
2017-03-20T02:14:32.063Z,0
2017-03-20T02:15:31.775Z,0
2017-03-20T02:16:31.800Z,0
2017-03-20T02:17:31.821Z,0
2017-03-20T02:18:32.146Z,0
2017-03-20T02:19:32.164Z,0
2017-03-20T02:20:32.189Z,0
2017-03-20T02:21:32.213Z,0
2017-03-20T02:22:32.223Z,0
2017-03-20T02:23:32.252Z,0
2017-03-20T02:24:46.585Z,0
2017-03-20T02:25:32.290Z,0
2017-03-20T02:26:32.309Z,0
2017-03-20T02:27:32.031Z,0
2017-03-20T02:28:32.358Z,0
2017-03-20T02:29:32.069Z,0
2017-03-20T02:30:32.391Z,0
2017-03-20T02:31:32.411Z,0
2017-03-20T02:32:32.443Z,0
2017-03-20T02:33:47.070Z,0
2017-03-20T02:34:32.482Z,0
2017-03-20T02:36:32.529Z,0
2017-03-20T02:37:32.234Z,0
2017-03-20T02:38:32.568Z,0
2017-03-20T02:39:32.273Z,0
2017-03-20T02:40:46.914Z,0
2017-03-20T02:41:32.314Z,0
2017-03-20T02:42:32.644Z,0
2017-03-20T02:43:32.671Z,0
2017-03-20T02:44:32.684Z,0
2017-03-20T02:45:47.322Z,0
2017-03-20T02:46:47.345Z,0
2017-03-20T02:47:32.441Z,0
2017-03-20T02:49:32.789Z,0
2017-03-20T02:50:32.806Z,0
2017-03-20T02:51:47.440Z,0
2017-03-20T02:52:32.850Z,0
2017-03-20T02:53:32.894Z,0
2017-03-20T02:54:32.890Z,0
2017-03-20T02:55:47.523Z,0
2017-03-20T02:56:47.544Z,0
2017-03-20T02:57:32.953Z,0
2017-03-20T02:58:32.982Z,0
2017-03-20T02:59:32.690Z,0
2017-03-20T03:00:33.015Z,0
2017-03-20T03:01:33.040Z,0
2017-03-20T03:02:33.052Z,0
2017-03-20T03:03:47.693Z,0
2017-03-20T03:04:33.099Z,0
2017-03-20T03:05:33.115Z,0
2017-03-20T03:06:33.135Z,0
2017-03-20T03:07:33.187Z,0
2017-03-20T03:08:33.183Z,0
2017-03-20T03:09:33.204Z,0
2017-03-20T03:10:33.234Z,0
2017-03-20T03:11:47.557Z,0
2017-03-20T03:12:33.268Z,0
2017-03-20T03:13:33.293Z,0
2017-03-20T03:14:33.310Z,0
2017-03-20T03:15:33.327Z,0
2017-03-20T03:16:32.738Z,0
2017-03-20T03:17:33.368Z,0
2017-03-20T03:18:33.392Z,0
2017-03-20T03:19:33.413Z,0
2017-03-20T03:20:33.427Z,0
2017-03-20T03:21:33.484Z,0
2017-03-20T03:22:33.477Z,0
2017-03-20T03:24:33.549Z,0
2017-03-20T03:26:33.552Z,0
2017-03-20T03:27:33.575Z,0
2017-03-20T03:28:33.599Z,0
2017-03-20T03:29:33.312Z,0
2017-03-20T03:30:33.332Z,0
2017-03-20T03:31:33.658Z,0
2017-03-20T03:32:33.374Z,0
2017-03-20T03:33:48.321Z,0
2017-03-20T03:34:48.336Z,0
2017-03-20T03:36:33.761Z,0
2017-03-20T03:37:33.777Z,0
2017-03-20T03:38:48.470Z,0
2017-03-20T03:39:48.439Z,0
2017-03-20T03:40:33.844Z,0
2017-03-20T03:41:33.558Z,0
2017-03-20T03:42:33.583Z,0
2017-03-20T03:43:48.523Z,0
2017-03-20T03:44:33.929Z,0
2017-03-20T03:45:33.949Z,0
2017-03-20T03:46:33.966Z,0
2017-03-20T03:47:33.985Z,0
2017-03-20T03:48:34.007Z,0
2017-03-20T03:49:34.031Z,0
2017-03-20T03:50:34.046Z,0
2017-03-20T03:51:34.069Z,0
2017-03-20T03:52:33.789Z,0
2017-03-20T03:53:34.117Z,0
2017-03-20T03:54:48.748Z,0
2017-03-20T03:56:48.790Z,0
2017-03-20T03:57:34.198Z,0
2017-03-20T03:58:33.609Z,0
2017-03-20T03:59:48.853Z,0
2017-03-20T04:00:33.955Z,0
2017-03-20T04:01:34.278Z,0
2017-03-20T04:02:33.998Z,0
2017-03-20T04:03:48.940Z,0
2017-03-20T04:04:34.352Z,0
2017-03-20T04:05:33.754Z,0
2017-03-20T04:06:48.997Z,0
2017-03-20T04:07:49.023Z,0
2017-03-20T04:08:34.436Z,0
2017-03-20T04:09:34.444Z,0
2017-03-20T04:10:34.462Z,0
2017-03-20T04:11:34.185Z,0
2017-03-20T04:12:34.505Z,0
2017-03-20T04:13:34.226Z,0
2017-03-20T04:14:34.549Z,0
2017-03-20T04:15:49.182Z,0
2017-03-20T04:16:34.590Z,0
2017-03-20T04:17:34.611Z,0
2017-03-20T04:18:34.633Z,0
2017-03-20T04:19:34.349Z,0
2017-03-20T04:20:34.670Z,0
2017-03-20T04:21:49.314Z,0
2017-03-20T04:22:34.716Z,0
2017-03-20T04:23:34.737Z,0
2017-03-20T04:26:34.789Z,0
2017-03-20T04:28:49.456Z,0
2017-03-20T04:29:34.880Z,0
2017-03-20T04:30:34.875Z,0
2017-03-20T04:31:49.513Z,0
2017-03-20T04:32:34.919Z,0
2017-03-20T04:33:34.981Z,0
2017-03-20T04:34:34.966Z,0
2017-03-20T04:35:34.983Z,0
2017-03-20T04:36:35.000Z,0
2017-03-20T04:37:35.025Z,0
2017-03-20T04:38:49.661Z,0
2017-03-20T04:39:35.066Z,0
2017-03-20T04:40:49.706Z,0
2017-03-20T04:41:35.105Z,0
2017-03-20T04:42:35.131Z,0
2017-03-20T04:43:35.159Z,4
2017-03-20T04:44:34.868Z,4
2017-03-20T04:45:35.192Z,4
2017-03-20T04:46:49.560Z,0
2017-03-20T04:47:49.551Z,0
2017-03-20T04:48:35.253Z,4
2017-03-20T04:49:34.971Z,0
2017-03-20T04:50:35.294Z,4
2017-03-20T04:51:35.014Z,8
2017-03-20T04:52:35.032Z,8
2017-03-20T04:53:35.362Z,8
2017-03-20T04:54:35.376Z,12
2017-03-20T04:55:35.397Z,12
2017-03-20T04:57:35.454Z,12
2017-03-20T05:00:35.199Z,20
2017-03-20T05:01:49.875Z,24
2017-03-20T05:02:35.239Z,28
2017-03-20T05:03:35.271Z,36
2017-03-20T05:04:35.283Z,40
2017-03-20T05:05:35.302Z,40
2017-03-20T05:06:35.318Z,40
2017-03-20T05:07:35.345Z,48
2017-03-20T05:08:35.402Z,48
2017-03-20T05:09:35.390Z,48
2017-03-20T05:10:35.405Z,52
2017-03-20T05:11:50.046Z,56
2017-03-20T05:12:50.367Z,60
2017-03-20T05:13:50.389Z,72
2017-03-20T05:14:35.493Z,84
2017-03-20T05:15:35.818Z,84
2017-03-20T05:17:35.856Z,96
2017-03-20T05:18:50.493Z,80
2017-03-20T05:19:35.591Z,76
2017-03-20T05:20:35.957Z,92
2017-03-20T05:21:35.936Z,100
2017-03-20T05:22:35.662Z,108
2017-03-20T05:23:35.692Z,124
2017-03-20T05:24:35.716Z,128
2017-03-20T05:25:36.019Z,116
2017-03-20T05:26:35.738Z,92
2017-03-20T05:27:36.067Z,84
2017-03-20T05:28:36.086Z,96
2017-03-20T05:29:35.506Z,120
2017-03-20T05:30:36.123Z,128
2017-03-20T05:31:35.842Z,152
2017-03-20T05:32:36.174Z,136
2017-03-20T05:33:35.893Z,120
2017-03-20T05:34:50.827Z,100
2017-03-20T05:36:35.949Z,124
2017-03-20T05:37:36.281Z,168
2017-03-20T05:38:36.303Z,208
2017-03-20T05:39:36.313Z,220
2017-03-20T05:40:36.337Z,204
2017-03-20T05:41:36.358Z,180
2017-03-20T05:42:36.383Z,224
2017-03-20T05:43:36.401Z,184
2017-03-20T05:44:51.035Z,132
2017-03-20T05:45:51.054Z,160
2017-03-20T05:46:36.158Z,204
2017-03-20T05:47:51.100Z,308
2017-03-20T05:48:36.515Z,340
2017-03-20T05:49:36.528Z,312
2017-03-20T05:50:51.161Z,240
2017-03-20T05:51:36.563Z,228
2017-03-20T05:52:51.210Z,256
2017-03-20T05:53:36.612Z,292
2017-03-20T05:54:36.626Z,412
2017-03-20T05:55:36.651Z,480
2017-03-20T05:56:51.290Z,492
2017-03-20T05:57:36.694Z,512
2017-03-20T05:58:36.723Z,540
2017-03-20T05:59:36.737Z,584
2017-03-20T06:00:36.754Z,544
2017-03-20T06:01:36.781Z,640
2017-03-20T06:02:36.798Z,772
2017-03-20T06:03:36.528Z,1004
2017-03-20T06:04:36.839Z,1412
2017-03-20T06:06:51.504Z,1284
2017-03-20T06:07:36.909Z,1296
2017-03-20T06:08:36.627Z,1180
2017-03-20T06:09:36.946Z,1140
2017-03-20T06:10:36.971Z,1044
2017-03-20T06:11:51.605Z,952
2017-03-20T06:12:37.009Z,1028
2017-03-20T06:13:51.648Z,960
2017-03-20T06:14:37.064Z,988
2017-03-20T06:15:37.077Z,960
2017-03-20T06:16:37.088Z,924
2017-03-20T06:17:51.428Z,832
2017-03-20T06:18:36.833Z,772
2017-03-20T06:19:51.774Z,724
2017-03-20T06:20:37.177Z,768
2017-03-20T06:21:51.510Z,752
2017-03-20T06:22:37.221Z,672
2017-03-20T06:23:37.244Z,620
2017-03-20T06:24:36.960Z,656
2017-03-20T06:25:37.290Z,664
2017-03-20T06:26:37.304Z,756
2017-03-20T06:27:51.982Z,748
2017-03-20T06:28:37.352Z,712
2017-03-20T06:29:37.377Z,576
2017-03-20T06:30:37.434Z,516
2017-03-20T06:31:37.444Z,572
2017-03-20T06:34:52.090Z,984
2017-03-20T06:35:37.496Z,952
2017-03-20T06:37:37.543Z,896
2017-03-20T06:38:37.561Z,952
2017-03-20T06:39:37.882Z,1164
2017-03-20T06:40:37.300Z,1196
2017-03-20T06:41:37.620Z,1308
2017-03-20T06:42:37.641Z,1376
2017-03-20T06:43:52.281Z,1428
2017-03-20T06:44:52.310Z,1516
2017-03-20T06:45:52.321Z,1640
2017-03-20T06:46:37.424Z,1604
2017-03-20T06:47:52.362Z,1712
2017-03-20T06:48:37.776Z,1732
2017-03-20T06:49:52.408Z,1920
2017-03-20T06:50:37.824Z,1968
2017-03-20T06:51:37.527Z,2140
2017-03-20T06:52:37.858Z,2180
2017-03-20T06:53:52.495Z,1944
2017-03-20T06:54:37.900Z,1976
2017-03-20T06:55:37.929Z,2180
2017-03-20T06:56:37.937Z,1844
2017-03-20T06:57:37.958Z,2016
2017-03-20T06:58:37.976Z,1980
2017-03-20T06:59:38.037Z,1692
2017-03-20T07:00:52.646Z,1540
2017-03-20T07:01:52.660Z,1376
2017-03-20T07:02:52.684Z,1320
2017-03-20T07:03:38.095Z,1424
2017-03-20T07:04:38.110Z,1360
2017-03-20T07:05:37.522Z,1232
2017-03-20T07:06:37.849Z,1488
2017-03-20T07:07:37.875Z,1432
2017-03-20T07:08:37.891Z,1604
2017-03-20T07:09:52.833Z,1440
2017-03-20T07:10:38.284Z,1416
2017-03-20T07:11:38.258Z,1420
2017-03-20T07:12:37.982Z,1732
2017-03-20T07:13:38.608Z,1420
2017-03-20T07:14:38.322Z,1788
2017-03-20T07:15:38.340Z,1648
2017-03-20T07:16:52.676Z,1756
2017-03-20T07:17:53.002Z,1908
2017-03-20T07:18:38.411Z,2044
2017-03-20T07:19:53.043Z,1984
2017-03-20T07:20:38.449Z,1780
2017-03-20T07:21:38.468Z,1800
2017-03-20T07:22:38.495Z,1764
2017-03-20T07:23:38.515Z,1560
2017-03-20T07:24:38.540Z,1656
2017-03-20T07:25:53.176Z,1744
2017-03-20T07:27:38.599Z,1748
2017-03-20T07:28:38.317Z,1528
2017-03-20T07:29:38.340Z,1684
2017-03-20T07:30:38.094Z,1504
2017-03-20T07:31:38.687Z,1244
2017-03-20T07:32:38.708Z,1148
2017-03-20T07:33:38.729Z,1152
2017-03-20T07:34:52.754Z,1056
2017-03-20T07:35:38.463Z,1084
2017-03-20T07:36:38.485Z,1056
2017-03-20T07:37:53.122Z,1188
2017-03-20T07:38:38.536Z,1352
2017-03-20T07:39:38.855Z,1224
2017-03-20T07:40:38.877Z,1260
2017-03-20T07:41:53.514Z,1340
2017-03-20T07:42:39.271Z,1364
2017-03-20T07:43:38.949Z,1380
2017-03-20T07:44:38.959Z,1428
2017-03-20T07:45:38.982Z,1324
2017-03-20T07:46:39.003Z,1324
2017-03-20T07:47:39.024Z,1304
2017-03-20T07:48:39.046Z,1620
2017-03-20T07:49:39.070Z,1644
2017-03-20T07:50:38.787Z,1544
2017-03-20T07:52:39.137Z,1744
2017-03-20T07:53:39.163Z,1496
2017-03-20T07:54:38.870Z,1352
2017-03-20T07:55:39.194Z,1384
2017-03-20T07:56:53.835Z,1564
2017-03-20T07:57:38.941Z,1652
2017-03-20T07:58:38.963Z,1756
2017-03-20T07:59:38.989Z,1968
2017-03-20T08:00:39.001Z,1960
2017-03-20T08:01:39.019Z,1812
2017-03-20T08:02:39.353Z,1756
2017-03-20T08:03:39.067Z,1724
2017-03-20T08:04:54.005Z,1616
2017-03-20T08:05:54.026Z,1528
2017-03-20T08:06:38.826Z,1464
2017-03-20T08:07:39.451Z,1736
2017-03-20T08:08:39.477Z,1972
2017-03-20T08:10:39.519Z,2328
2017-03-20T08:11:39.537Z,2212
2017-03-20T08:12:39.571Z,2108
2017-03-20T08:13:39.587Z,2188
2017-03-20T08:14:39.302Z,2208
2017-03-20T08:15:39.320Z,2152
2017-03-20T08:16:39.360Z,2084
2017-03-20T08:17:39.670Z,2052
2017-03-20T08:18:39.593Z,2016
2017-03-20T08:19:39.717Z,2160
2017-03-20T08:20:39.733Z,2372
2017-03-20T08:21:39.752Z,2432
2017-03-20T08:22:39.793Z,2336
2017-03-20T08:25:54.154Z,1776
2017-03-20T08:26:39.859Z,1776
2017-03-20T08:27:39.887Z,1900
2017-03-20T08:28:54.874Z,1972
2017-03-20T08:29:39.930Z,2236
2017-03-20T08:30:39.957Z,2400
2017-03-20T08:31:39.975Z,2444
2017-03-20T08:32:39.997Z,2424
2017-03-20T08:33:40.018Z,2360
2017-03-20T08:34:40.035Z,1964
2017-03-20T08:35:54.676Z,2060
2017-03-20T08:36:54.695Z,2044
2017-03-20T08:37:40.105Z,2296
2017-03-20T08:38:40.123Z,2216
2017-03-20T08:39:40.143Z,2192
2017-03-20T08:40:39.859Z,2588
2017-03-20T08:41:40.188Z,2976
2017-03-20T08:42:40.215Z,3464
2017-03-20T08:43:40.236Z,3408
2017-03-20T08:44:54.875Z,3552
2017-03-20T08:45:40.285Z,3708
2017-03-20T08:46:40.290Z,3576
2017-03-20T08:47:40.322Z,3636
2017-03-20T08:48:40.344Z,3588
2017-03-20T08:49:40.095Z,3284
2017-03-20T08:50:40.385Z,3024
2017-03-20T08:51:55.023Z,3012
2017-03-20T08:52:40.444Z,2912
2017-03-20T08:53:40.460Z,3232
2017-03-20T08:54:55.087Z,3256
2017-03-20T08:55:56.114Z,3384
2017-03-20T08:56:40.223Z,3344
2017-03-20T08:57:40.553Z,3360
2017-03-20T08:58:40.561Z,3368
2017-03-20T08:59:40.596Z,3460
2017-03-20T09:00:54.914Z,3352
2017-03-20T09:01:40.625Z,3188
2017-03-20T09:02:40.659Z,3232
2017-03-20T09:03:40.682Z,3516
2017-03-20T09:04:40.387Z,3520
2017-03-20T09:05:40.710Z,3140
2017-03-20T09:06:40.733Z,3184
2017-03-20T09:07:40.473Z,3468
2017-03-20T09:08:40.486Z,3772
2017-03-20T09:09:40.193Z,3716
2017-03-20T09:10:55.133Z,4140
2017-03-20T09:11:40.543Z,4024
2017-03-20T09:12:40.882Z,4340
2017-03-20T09:13:40.902Z,4080
2017-03-20T09:14:40.619Z,3836
2017-03-20T09:16:55.575Z,3184
2017-03-20T09:17:40.735Z,2844
2017-03-20T09:18:41.007Z,2540
2017-03-20T09:19:41.023Z,2764
2017-03-20T09:20:41.045Z,3392
2017-03-20T09:21:40.766Z,3844
2017-03-20T09:22:55.709Z,4060
2017-03-20T09:23:40.818Z,4152
2017-03-20T09:24:40.832Z,3904
2017-03-20T09:25:55.772Z,3852
2017-03-20T09:26:55.793Z,3316
2017-03-20T09:27:41.202Z,2952
2017-03-20T09:28:55.839Z,2488
2017-03-20T09:29:55.962Z,2220
2017-03-20T09:30:41.271Z,2184
2017-03-20T09:31:55.908Z,2380
2017-03-20T09:32:41.015Z,2576
2017-03-20T09:33:41.340Z,2956
2017-03-20T09:34:41.358Z,3424
2017-03-20T09:35:41.378Z,3508
2017-03-20T09:36:41.404Z,3560
2017-03-20T09:37:41.126Z,3156
2017-03-20T09:38:41.146Z,2784
2017-03-20T09:39:41.471Z,2636
2017-03-20T09:40:41.489Z,2564
2017-03-20T09:41:56.133Z,2468
2017-03-20T09:42:56.156Z,2320
2017-03-20T09:43:56.188Z,2192
2017-03-20T09:45:41.305Z,2228
2017-03-20T09:47:41.674Z,2096
2017-03-20T09:48:41.675Z,1916
2017-03-20T09:50:41.713Z,1776
2017-03-20T09:51:41.736Z,1808
2017-03-20T09:52:41.807Z,2044
2017-03-20T09:53:41.476Z,2316
2017-03-20T09:55:41.830Z,2928
2017-03-20T09:56:41.242Z,2776
2017-03-20T09:57:41.873Z,2544
2017-03-20T09:58:56.208Z,2624
2017-03-20T09:59:41.620Z,2828
2017-03-20T10:00:41.938Z,3168
2017-03-20T10:01:41.958Z,3248
2017-03-20T10:02:41.987Z,3288
2017-03-20T10:03:56.017Z,3160
2017-03-20T10:04:42.068Z,2976
2017-03-20T10:05:42.047Z,3000
2017-03-20T10:06:42.070Z,3076
2017-03-20T10:07:41.795Z,2876
2017-03-20T10:08:56.735Z,2752
2017-03-20T10:09:56.756Z,2816
2017-03-20T10:10:41.854Z,2896
2017-03-20T10:11:42.181Z,3268
2017-03-20T10:12:41.900Z,3504
2017-03-20T10:13:42.238Z,3528
2017-03-20T10:14:41.643Z,3568
2017-03-20T10:15:41.661Z,3628
2017-03-20T10:16:56.310Z,3480
2017-03-20T10:17:42.318Z,3376
2017-03-20T10:18:42.037Z,3352
2017-03-20T10:19:56.373Z,3368
2017-03-20T10:21:42.404Z,3156
2017-03-20T10:22:42.131Z,3096
2017-03-20T10:23:42.157Z,2964
2017-03-20T10:24:57.098Z,2900
2017-03-20T10:25:42.189Z,2816
2017-03-20T10:26:42.517Z,2944
2017-03-20T10:27:42.544Z,2976
2017-03-20T10:29:57.200Z,2456
2017-03-20T10:30:42.616Z,2516
2017-03-20T10:31:42.325Z,2456
2017-03-20T10:32:42.354Z,2356
2017-03-20T10:33:42.677Z,2304
2017-03-20T10:34:42.394Z,2192
2017-03-20T10:35:57.338Z,2084
2017-03-20T10:36:42.741Z,2036
2017-03-20T10:37:42.770Z,2084
2017-03-20T10:38:42.793Z,2032
2017-03-20T10:39:42.811Z,2044
2017-03-20T10:40:42.839Z,2028
2017-03-20T10:41:42.248Z,2040
2017-03-20T10:42:42.575Z,2364
2017-03-20T10:43:42.898Z,2544
2017-03-20T10:44:42.619Z,2804
2017-03-20T10:45:42.940Z,3144
2017-03-20T10:49:43.280Z,2840
2017-03-20T10:50:43.053Z,2832
2017-03-20T10:51:57.692Z,3160
2017-03-20T10:52:42.797Z,3328
2017-03-20T10:53:43.124Z,3272
2017-03-20T10:54:42.853Z,3280
2017-03-20T10:55:43.165Z,3356
2017-03-20T10:56:43.185Z,3644
2017-03-20T10:57:43.216Z,3800
2017-03-20T10:58:43.232Z,4012
2017-03-20T10:59:43.259Z,5052
2017-03-20T11:00:43.280Z,6404
2017-03-20T11:01:43.299Z,6688
2017-03-20T11:02:43.326Z,5988
2017-03-20T11:03:43.347Z,6128
2017-03-20T11:05:43.393Z,6896
2017-03-20T11:06:57.726Z,7480
2017-03-20T11:07:43.437Z,7660
2017-03-20T11:08:58.074Z,7836
2017-03-20T11:09:43.519Z,8164
2017-03-20T11:10:43.201Z,8328
2017-03-20T11:11:43.237Z,8132
2017-03-20T11:12:43.554Z,8184
2017-03-20T11:13:43.273Z,8104
2017-03-20T11:14:58.213Z,7748
2017-03-20T11:15:43.617Z,7432
2017-03-20T11:16:43.339Z,6840
2017-03-20T11:17:43.371Z,6056
2017-03-20T11:18:43.392Z,5444
2017-03-20T11:19:58.027Z,5800
2017-03-20T11:20:43.428Z,5608
2017-03-20T11:22:43.478Z,4528
2017-03-20T11:23:43.514Z,4180
2017-03-20T11:24:43.826Z,4244
2017-03-20T11:25:43.851Z,3840
2017-03-20T11:26:43.868Z,3936
2017-03-20T11:27:43.594Z,4404
2017-03-20T11:28:43.623Z,5364
2017-03-20T11:29:43.639Z,5812
2017-03-20T11:30:43.661Z,6480
2017-03-20T11:31:43.383Z,7536
2017-03-20T11:32:43.727Z,8088
2017-03-20T11:33:43.432Z,8012
2017-03-20T11:34:43.758Z,7928
2017-03-20T11:35:43.471Z,7964
2017-03-20T11:36:44.103Z,8352
2017-03-20T11:37:43.821Z,8572
2017-03-20T11:38:58.766Z,8452
2017-03-20T11:39:44.174Z,8284
2017-03-20T11:40:44.195Z,7956
2017-03-20T11:41:44.220Z,7164
2017-03-20T11:42:44.245Z,6412
2017-03-20T11:43:44.280Z,5992
2017-03-20T11:45:44.313Z,5176
2017-03-20T11:46:58.955Z,4648
2017-03-20T11:47:44.369Z,4516
2017-03-20T11:48:44.388Z,4764
2017-03-20T11:50:44.439Z,5088
2017-03-20T11:51:58.768Z,5336
2017-03-20T11:54:59.141Z,5328
2017-03-20T11:55:44.550Z,5432
2017-03-20T11:56:44.571Z,5200
2017-03-20T11:57:44.608Z,4872
2017-03-20T11:58:44.628Z,4256
2017-03-20T11:59:44.646Z,3896
2017-03-20T12:00:44.372Z,3720
2017-03-20T12:01:44.688Z,3596
2017-03-20T12:02:44.714Z,3968
2017-03-20T12:03:44.740Z,4240
2017-03-20T12:04:44.460Z,4512
2017-03-20T12:05:44.479Z,4656
2017-03-20T12:06:59.425Z,4504
2017-03-20T12:07:44.833Z,4512
2017-03-20T12:08:44.862Z,4076
2017-03-20T12:09:44.618Z,3720
2017-03-20T12:10:59.210Z,3532
2017-03-20T12:11:44.618Z,3468
2017-03-20T12:12:59.570Z,3308
2017-03-20T12:13:44.975Z,3368
2017-03-20T12:14:44.687Z,3448
2017-03-20T12:15:44.711Z,3336
2017-03-20T12:16:45.039Z,3408
2017-03-20T12:17:44.764Z,3340
2017-03-20T12:18:59.705Z,3052
2017-03-20T12:19:45.112Z,2956
2017-03-20T12:20:59.449Z,3008
2017-03-20T12:21:44.854Z,3240
2017-03-20T12:22:59.494Z,3312
2017-03-20T12:23:44.598Z,3072
2017-03-20T12:25:44.956Z,2744
2017-03-20T12:26:59.594Z,2844
2017-03-20T12:27:59.920Z,2940
2017-03-20T12:29:59.966Z,3200
2017-03-20T12:30:45.094Z,3424
2017-03-20T12:33:45.135Z,3664
2017-03-20T12:34:45.504Z,3580
2017-03-20T12:35:45.478Z,3728
2017-03-20T12:36:45.205Z,4092
2017-03-20T12:37:45.533Z,4796
2017-03-20T12:38:45.553Z,5368
2017-03-20T12:39:45.577Z,6212
2017-03-20T12:40:45.595Z,6152
2017-03-20T12:42:00.239Z,6028
2017-03-20T12:42:45.651Z,5684
2017-03-20T12:43:45.670Z,5740
2017-03-20T12:44:45.694Z,5548
2017-03-20T12:45:45.424Z,5536
2017-03-20T12:47:00.050Z,5444
2017-03-20T12:47:45.469Z,5952
2017-03-20T12:48:45.481Z,6580
2017-03-20T12:50:00.121Z,6140
2017-03-20T12:50:45.537Z,5400
2017-03-20T12:51:45.548Z,4724
2017-03-20T12:52:45.584Z,4196
2017-03-20T12:53:45.602Z,4224
2017-03-20T12:55:00.542Z,4476
2017-03-20T12:55:45.643Z,4160
2017-03-20T12:56:45.671Z,4012
2017-03-20T12:57:46.002Z,3464
2017-03-20T12:58:45.719Z,2784
2017-03-20T12:59:45.438Z,2624
2017-03-20T13:01:45.782Z,3108
2017-03-20T13:02:46.113Z,2792
2017-03-20T13:03:46.141Z,2172
2017-03-20T13:05:45.877Z,2264
2017-03-20T13:07:00.215Z,2240
2017-03-20T13:07:46.231Z,2044
2017-03-20T13:11:46.016Z,2428
2017-03-20T13:14:00.993Z,2184
2017-03-20T13:14:46.402Z,2344
2017-03-20T13:15:46.113Z,2452
2017-03-20T13:18:00.779Z,3056
2017-03-20T13:18:46.489Z,3132
2017-03-20T13:19:46.509Z,3456
2017-03-20T13:20:45.923Z,3952
2017-03-20T13:22:01.172Z,4052
2017-03-20T13:22:46.579Z,4108
2017-03-20T13:23:46.608Z,4132
2017-03-20T13:24:46.622Z,3684
2017-03-20T13:27:01.293Z,4096
2017-03-20T13:27:46.698Z,4268
2017-03-20T13:28:46.719Z,4796
2017-03-20T13:30:01.058Z,5456
2017-03-20T13:30:46.767Z,5996
2017-03-20T13:31:46.787Z,5984
2017-03-20T13:32:46.819Z,5848
2017-03-20T13:33:47.090Z,5080
2017-03-20T13:34:46.857Z,4624
2017-03-20T13:35:46.876Z,3872
2017-03-20T13:36:46.908Z,4220
2017-03-20T13:37:46.932Z,4580
2017-03-20T13:38:46.649Z,4648
2017-03-20T13:39:46.974Z,4288
2017-03-20T13:40:46.995Z,3696
2017-03-20T13:41:47.019Z,3444
2017-03-20T13:42:47.050Z,3140
2017-03-20T13:43:46.819Z,3116
2017-03-20T13:44:47.090Z,3640
2017-03-20T13:46:01.730Z,4684
2017-03-20T13:46:47.140Z,5400
2017-03-20T13:47:46.857Z,5500
2017-03-20T13:48:46.987Z,5372
2017-03-20T13:49:46.903Z,5416
2017-03-20T13:50:46.928Z,5276
2017-03-20T13:51:47.255Z,4948
2017-03-20T13:52:46.980Z,5676
2017-03-20T13:53:46.997Z,5916
2017-03-20T13:54:47.021Z,6080
2017-03-20T13:55:47.353Z,6188
2017-03-20T13:56:47.682Z,6128
2017-03-20T13:57:47.412Z,6024
2017-03-20T13:59:02.034Z,5416
2017-03-20T13:59:47.142Z,4868
2017-03-20T14:00:47.465Z,4296
2017-03-20T14:02:02.114Z,4236
2017-03-20T14:02:47.217Z,4260
2017-03-20T14:03:47.243Z,4544
2017-03-20T14:04:47.562Z,4484
2017-03-20T14:05:47.583Z,4344
2017-03-20T14:06:47.611Z,4532
2017-03-20T14:07:47.330Z,4596
2017-03-20T14:08:47.357Z,4168
2017-03-20T14:09:47.680Z,4032
2017-03-20T14:10:47.099Z,3692
2017-03-20T14:11:47.728Z,3964
2017-03-20T14:13:47.780Z,5164
2017-03-20T14:14:47.800Z,4872
2017-03-20T14:15:47.825Z,4812
2017-03-20T14:17:02.462Z,4924
2017-03-20T14:17:47.878Z,5748
2017-03-20T14:18:47.902Z,6108
2017-03-20T14:19:47.923Z,6688
2017-03-20T14:20:47.943Z,7144
2017-03-20T14:21:47.664Z,6156
2017-03-20T14:22:47.389Z,6248
2017-03-20T14:23:48.016Z,6168
2017-03-20T14:24:47.739Z,5952
2017-03-20T14:25:47.760Z,5464
2017-03-20T14:26:48.084Z,5300
2017-03-20T14:27:48.109Z,5248
2017-03-20T14:28:48.135Z,5156
2017-03-20T14:29:47.854Z,5008
2017-03-20T14:30:47.878Z,4804
2017-03-20T14:31:47.904Z,4312
2017-03-20T14:32:47.929Z,4140
2017-03-20T14:33:47.956Z,3840
2017-03-20T14:34:48.277Z,3464
2017-03-20T14:35:48.300Z,3596
2017-03-20T14:37:48.500Z,3816
2017-03-20T14:38:48.375Z,3680
2017-03-20T14:39:48.409Z,3640
2017-03-20T14:40:48.115Z,3720
2017-03-20T14:41:47.839Z,3324
2017-03-20T14:42:48.167Z,2932
2017-03-20T14:44:47.915Z,3684
2017-03-20T14:45:48.543Z,3868
2017-03-20T14:46:48.562Z,3568
2017-03-20T14:47:48.596Z,3340
2017-03-20T14:49:03.229Z,3520